Terminal Aerodrome Forecast
Issued by NWS Tampa Bay Area, FL

Home | Current Version | Previous Version | Text Only | Print | Product List | Glossary On
Versions: 1 2 3 4 5 6 7 8 9 10 11 12 13 14 15 16
324
FTUS42 KTBW 240520
TAFSRQ
TAF
KSRQ 240520Z 2406/2506 33010KT P6SM VCSH OVC010
      TEMPO 2406/2409 4SM -DZ BR OVC006
     FM240900 36006KT P6SM OVC006
     FM241700 35008KT P6SM BKN015
     FM241900 35008KT P6SM SCT020
     FM242300 VRB03KT P6SM SKC=

USA.gov is the U.S. government's official web portal to all federal, state and local government web resources and services.